createdAt,value
2023-03-12T00:00:04.433Z,-0.90
2023-03-12T00:02:35.177Z,-0.80
2023-03-12T00:05:02.137Z,-0.80
2023-03-12T00:07:29.175Z,-0.80
2023-03-12T00:09:56.036Z,-0.80
2023-03-12T00:12:23.009Z,-0.70
2023-03-12T00:14:49.822Z,-0.80
2023-03-12T00:17:16.609Z,-0.80
2023-03-12T00:19:43.382Z,-0.70
2023-03-12T00:22:10.150Z,-0.70
2023-03-12T00:24:36.935Z,-0.70
2023-03-12T00:27:04.703Z,-0.70
2023-03-12T00:29:31.479Z,-0.60
2023-03-12T00:31:58.527Z,-0.40
2023-03-12T00:34:25.718Z,-0.40
2023-03-12T00:36:52.509Z,-0.30
2023-03-12T00:39:19.389Z,-0.20
2023-03-12T00:41:46.263Z,-0.20
2023-03-12T00:44:13.598Z,-0.10
2023-03-12T00:46:40.507Z,-0.20
2023-03-12T00:49:07.860Z,-0.20
2023-03-12T00:51:35.269Z,-0.20
2023-03-12T00:54:02.051Z,-0.40
2023-03-12T00:56:28.883Z,-0.60
2023-03-12T00:58:56.103Z,-0.70
2023-03-12T01:01:23.058Z,-0.80
2023-03-12T01:03:52.089Z,-1.00
2023-03-12T01:06:19.298Z,-1.10
2023-03-12T01:08:46.141Z,-1.30
2023-03-12T01:11:18.552Z,-1.20
2023-03-12T01:13:45.733Z,-1.20
2023-03-12T01:16:13.011Z,-1.20
2023-03-12T01:18:40.034Z,-1.20
2023-03-12T01:21:07.396Z,-1.10
2023-03-12T01:23:34.154Z,-1.10
2023-03-12T01:26:00.978Z,-1.10
2023-03-12T01:28:27.872Z,-1.10
2023-03-12T01:30:55.220Z,-1.00
2023-03-12T01:33:24.801Z,-0.90
2023-03-12T01:35:51.777Z,-0.90
2023-03-12T01:38:20.790Z,-0.80
2023-03-12T01:40:47.670Z,-0.70
2023-03-12T01:43:26.105Z,-0.60
2023-03-12T01:46:01.771Z,-0.60
2023-03-12T01:48:44.464Z,-0.60
2023-03-12T01:51:14.975Z,-0.60
2023-03-12T01:53:45.576Z,-0.50
2023-03-12T01:56:13.556Z,-0.50
2023-03-12T01:58:47.099Z,-0.50
2023-03-12T02:01:17.785Z,-0.50
2023-03-12T02:03:47.686Z,-0.40
2023-03-12T02:06:18.504Z,-0.40
2023-03-12T02:08:47.466Z,-0.40
2023-03-12T02:11:14.696Z,-0.50
2023-03-12T02:13:42.008Z,-0.40
2023-03-12T02:16:09.768Z,-0.40
2023-03-12T02:18:37.015Z,-0.40
2023-03-12T02:21:29.230Z,-0.30
2023-03-12T02:24:39.398Z,-0.30
2023-03-12T02:27:09.848Z,-0.20
2023-03-12T02:29:39.757Z,-0.10
2023-03-12T02:32:12.774Z,-0.10
2023-03-12T02:34:39.571Z,-0.10
2023-03-12T02:37:06.791Z,-0.10
2023-03-12T02:39:33.872Z,0.00
2023-03-12T02:42:00.843Z,0.00
2023-03-12T02:44:31.903Z,0.00
2023-03-12T02:47:00.808Z,0.00
2023-03-12T02:49:33.515Z,0.10
2023-03-12T02:52:01.085Z,0.10
2023-03-12T02:54:29.323Z,0.10
2023-03-12T02:56:57.062Z,0.10
2023-03-12T02:59:26.831Z,0.00
2023-03-12T03:01:59.033Z,0.00
2023-03-12T03:04:27.969Z,0.00
2023-03-12T03:06:55.013Z,0.00
2023-03-12T03:09:22.514Z,0.10
2023-03-12T03:11:50.954Z,0.10
2023-03-12T03:14:18.533Z,0.10
2023-03-12T03:16:47.702Z,0.10
2023-03-12T03:19:14.590Z,0.10
2023-03-12T03:21:41.621Z,0.10
2023-03-12T03:24:08.540Z,0.10
2023-03-12T03:26:35.682Z,0.20
2023-03-12T03:29:02.582Z,0.10
2023-03-12T03:31:29.786Z,0.20
2023-03-12T03:33:57.130Z,0.20
2023-03-12T03:36:23.983Z,0.20
2023-03-12T03:38:58.809Z,0.20
2023-03-12T03:41:27.053Z,0.20
2023-03-12T03:43:58.412Z,0.20
2023-03-12T03:46:26.214Z,0.20
2023-03-12T03:48:58.799Z,0.20
2023-03-12T03:51:26.942Z,0.20
2023-03-12T03:54:00.488Z,0.20
2023-03-12T03:56:28.539Z,0.20
2023-03-12T03:58:58.287Z,0.20
2023-03-12T04:01:26.362Z,0.20
2023-03-12T04:03:54.571Z,0.20
2023-03-12T04:06:21.756Z,0.30
2023-03-12T04:08:48.667Z,0.30
2023-03-12T04:11:21.118Z,0.40
2023-03-12T04:13:48.860Z,0.40
2023-03-12T04:16:18.716Z,0.40
2023-03-12T04:18:46.469Z,0.50
2023-03-12T04:21:14.530Z,0.50
2023-03-12T04:23:42.739Z,0.60
2023-03-12T04:26:11.542Z,0.60
2023-03-12T04:28:39.158Z,0.60
2023-03-12T04:31:08.173Z,0.60
2023-03-12T04:33:40.851Z,0.70
2023-03-12T04:36:09.469Z,0.70
2023-03-12T04:38:39.739Z,0.70
2023-03-12T04:41:12.109Z,0.70
2023-03-12T04:43:44.219Z,0.80
2023-03-12T04:46:12.006Z,0.80
2023-03-12T04:48:40.139Z,0.80
2023-03-12T04:51:07.464Z,0.80
2023-03-12T04:53:34.964Z,0.80
2023-03-12T04:56:02.771Z,0.80
2023-03-12T04:58:31.604Z,0.90
2023-03-12T05:00:58.658Z,0.90
2023-03-12T05:03:25.575Z,0.90
2023-03-12T05:06:02.907Z,1.00
2023-03-12T05:08:30.167Z,1.00
2023-03-12T05:10:57.284Z,1.00
2023-03-12T05:13:24.236Z,0.90
2023-03-12T05:15:55.180Z,1.00
2023-03-12T05:18:22.317Z,1.00
2023-03-12T05:21:12.664Z,1.00
2023-03-12T05:23:42.466Z,1.00
2023-03-12T05:26:21.287Z,1.00
2023-03-12T05:28:49.245Z,1.00
2023-03-12T05:31:18.895Z,1.00
2023-03-12T05:33:46.047Z,1.00
2023-03-12T05:36:14.618Z,1.00
2023-03-12T05:38:43.867Z,1.00
2023-03-12T05:41:20.734Z,1.00
2023-03-12T05:43:48.436Z,1.00
2023-03-12T05:46:15.880Z,1.00
2023-03-12T05:48:43.202Z,1.00
2023-03-12T05:51:10.791Z,1.00
2023-03-12T05:53:38.564Z,1.00
2023-03-12T05:56:08.607Z,1.00
2023-03-12T05:58:36.195Z,1.10
2023-03-12T06:01:04.813Z,1.10
2023-03-12T06:03:31.723Z,1.10
2023-03-12T06:05:58.951Z,1.20
2023-03-12T06:08:25.956Z,1.20
2023-03-12T06:10:56.712Z,1.20
2023-03-12T06:13:25.242Z,1.20
2023-03-12T06:15:54.175Z,1.30
2023-03-12T06:18:21.080Z,1.30
2023-03-12T06:20:48.053Z,1.40
2023-03-12T06:23:15.262Z,1.40
2023-03-12T06:25:45.325Z,1.40
2023-03-12T06:28:12.196Z,1.50
2023-03-12T06:30:40.541Z,1.50
2023-03-12T06:33:08.970Z,1.60
2023-03-12T06:35:36.196Z,1.60
2023-03-12T06:38:03.013Z,1.70
2023-03-12T06:40:29.903Z,1.70
2023-03-12T06:42:56.794Z,1.70
2023-03-12T06:45:23.748Z,1.80
2023-03-12T06:47:50.760Z,1.90
2023-03-12T06:50:17.676Z,2.10
2023-03-12T06:52:44.496Z,2.30
2023-03-12T06:55:11.555Z,2.50
2023-03-12T06:57:38.724Z,2.40
2023-03-12T07:00:06.187Z,2.40
2023-03-12T07:02:33.115Z,2.50
2023-03-12T07:05:00.018Z,2.60
2023-03-12T07:07:26.782Z,2.80
2023-03-12T07:09:53.537Z,2.90
2023-03-12T07:12:23.311Z,3.40
2023-03-12T07:14:50.172Z,4.30
2023-03-12T07:17:16.947Z,4.60
2023-03-12T07:19:43.861Z,4.60
2023-03-12T07:22:10.768Z,5.10
2023-03-12T07:24:38.062Z,5.80
2023-03-12T07:27:04.863Z,5.50
2023-03-12T07:29:34.184Z,5.40
2023-03-12T07:32:01.074Z,5.00
2023-03-12T07:34:27.918Z,4.90
2023-03-12T07:36:54.985Z,4.70
2023-03-12T07:39:21.943Z,4.60
2023-03-12T07:41:49.382Z,4.50
2023-03-12T07:44:16.204Z,4.50
2023-03-12T07:46:43.168Z,4.40
2023-03-12T07:49:10.115Z,4.40
2023-03-12T07:51:37.170Z,4.50
2023-03-12T07:54:04.087Z,4.50
2023-03-12T07:56:31.236Z,4.50
2023-03-12T07:58:58.162Z,4.50
2023-03-12T08:01:31.859Z,4.60
2023-03-12T08:03:59.727Z,4.60
2023-03-12T08:06:26.814Z,4.80
2023-03-12T08:08:54.102Z,4.90
2023-03-12T08:11:21.687Z,5.20
2023-03-12T08:13:48.690Z,5.20
2023-03-12T08:16:18.772Z,5.50
2023-03-12T08:18:45.963Z,5.90
2023-03-12T08:21:16.353Z,6.50
2023-03-12T08:23:44.239Z,7.20
2023-03-12T08:26:11.181Z,8.40
2023-03-12T08:28:37.953Z,8.80
2023-03-12T08:31:05.309Z,9.10
2023-03-12T08:33:32.719Z,9.50
2023-03-12T08:35:59.596Z,9.90
2023-03-12T08:38:26.658Z,10.50
2023-03-12T08:41:01.743Z,10.00
2023-03-12T08:43:29.451Z,9.50
2023-03-12T08:46:01.651Z,9.20
2023-03-12T08:48:29.866Z,9.10
2023-03-12T08:50:58.739Z,9.30
2023-03-12T08:53:27.011Z,9.50
2023-03-12T08:55:54.700Z,9.90
2023-03-12T08:58:23.152Z,10.00
2023-03-12T09:00:50.018Z,9.90
2023-03-12T09:03:17.119Z,11.00
2023-03-12T09:05:47.943Z,11.40
2023-03-12T09:08:15.899Z,11.70
2023-03-12T09:10:50.530Z,11.90
2023-03-12T09:13:17.291Z,12.30
2023-03-12T09:15:44.311Z,12.10
2023-03-12T09:18:11.109Z,12.00
2023-03-12T09:20:37.900Z,11.60
2023-03-12T09:23:06.713Z,11.10
2023-03-12T09:25:34.460Z,10.60
2023-03-12T09:28:02.576Z,10.40
2023-03-12T09:30:30.683Z,10.10
2023-03-12T09:32:57.866Z,10.00
2023-03-12T09:35:27.846Z,9.70
2023-03-12T09:37:54.679Z,9.80
2023-03-12T09:40:24.453Z,9.70
2023-03-12T09:43:10.705Z,9.70
2023-03-12T09:45:45.123Z,9.80
2023-03-12T09:48:20.178Z,9.80
2023-03-12T09:50:50.471Z,9.90
2023-03-12T09:53:22.773Z,10.10
2023-03-12T09:55:52.589Z,10.40
2023-03-12T09:58:32.318Z,10.90
2023-03-12T10:01:26.590Z,11.30
2023-03-12T10:04:05.261Z,11.80
2023-03-12T10:06:56.223Z,12.40
2023-03-12T10:09:44.864Z,12.30
2023-03-12T10:13:02.695Z,12.50
2023-03-12T10:15:48.810Z,13.00
2023-03-12T10:18:35.991Z,13.50
2023-03-12T10:21:14.738Z,13.10
2023-03-12T10:24:11.780Z,12.60
2023-03-12T10:26:45.951Z,12.20
2023-03-12T10:29:30.564Z,12.20
2023-03-12T10:32:00.230Z,11.80
2023-03-12T10:34:37.675Z,11.40
2023-03-12T10:37:18.761Z,11.50
2023-03-12T10:39:46.040Z,11.40
2023-03-12T10:42:17.048Z,11.00
2023-03-12T10:44:45.105Z,10.90
2023-03-12T10:47:37.402Z,11.00
2023-03-12T10:50:17.656Z,10.90
2023-03-12T10:52:45.672Z,10.90
2023-03-12T10:55:20.806Z,11.00
2023-03-12T10:57:48.776Z,11.00
2023-03-12T11:00:28.350Z,11.90
2023-03-12T11:03:20.358Z,12.50
2023-03-12T11:05:53.736Z,12.80
2023-03-12T11:08:24.585Z,12.70
2023-03-12T11:10:51.470Z,12.80
2023-03-12T11:13:40.036Z,13.20
2023-03-12T11:16:19.253Z,13.10
2023-03-12T11:19:04.685Z,12.70
2023-03-12T11:21:37.195Z,12.50
2023-03-12T11:24:08.116Z,13.00
2023-03-12T11:26:47.289Z,13.10
2023-03-12T11:29:25.804Z,13.00
2023-03-12T11:32:20.852Z,12.90
2023-03-12T11:34:49.537Z,12.70
2023-03-12T11:37:25.785Z,13.00
2023-03-12T11:40:14.420Z,13.10
2023-03-12T11:43:11.608Z,13.10
2023-03-12T11:46:07.591Z,13.00
2023-03-12T11:48:55.967Z,12.40
2023-03-12T11:51:34.791Z,12.40
2023-03-12T11:54:25.578Z,12.60
2023-03-12T11:56:53.895Z,12.60
2023-03-12T11:59:52.097Z,12.70
2023-03-12T12:02:53.799Z,12.70
2023-03-12T12:05:29.350Z,12.90
2023-03-12T12:08:14.873Z,13.60
2023-03-12T12:11:02.323Z,14.10
2023-03-12T12:13:47.160Z,14.80
2023-03-12T12:16:33.073Z,14.80
2023-03-12T12:19:20.709Z,14.50
2023-03-12T12:21:54.459Z,13.90
2023-03-12T12:24:47.250Z,13.50
2023-03-12T12:27:22.558Z,13.30
2023-03-12T12:30:16.982Z,13.50
2023-03-12T12:33:01.321Z,13.60
2023-03-12T12:35:39.259Z,13.90
2023-03-12T12:38:16.540Z,14.20
2023-03-12T12:40:51.513Z,14.20
2023-03-12T12:43:28.161Z,13.90
2023-03-12T12:46:02.263Z,13.50
2023-03-12T12:48:42.200Z,13.00
2023-03-12T12:51:10.778Z,12.70
2023-03-12T12:53:59.485Z,12.40
2023-03-12T12:56:33.369Z,12.30
2023-03-12T12:59:06.415Z,12.30
2023-03-12T13:01:36.490Z,12.60
2023-03-12T13:04:12.023Z,13.50
2023-03-12T13:07:10.635Z,13.90
2023-03-12T13:09:46.564Z,13.50
2023-03-12T13:12:15.349Z,12.80
2023-03-12T13:14:44.331Z,12.10
2023-03-12T13:17:23.515Z,12.00
2023-03-12T13:20:01.011Z,11.80
2023-03-12T13:22:53.089Z,11.80
2023-03-12T13:25:40.196Z,11.70
2023-03-12T13:28:25.678Z,11.50
2023-03-12T13:30:54.508Z,11.40
2023-03-12T13:33:45.478Z,11.40
2023-03-12T13:36:23.409Z,11.40
2023-03-12T13:39:00.359Z,11.10
2023-03-12T13:41:31.953Z,11.00
2023-03-12T13:43:59.573Z,11.00
2023-03-12T13:46:39.245Z,10.90
2023-03-12T13:49:11.748Z,10.60
2023-03-12T13:51:52.314Z,10.30
2023-03-12T13:54:20.269Z,10.40
2023-03-12T13:56:56.848Z,10.30
2023-03-12T13:59:26.175Z,10.20
2023-03-12T14:02:01.073Z,10.20
2023-03-12T14:04:38.949Z,10.10
2023-03-12T14:07:34.653Z,10.10
2023-03-12T14:10:33.623Z,10.10
2023-03-12T14:13:16.805Z,10.30
2023-03-12T14:16:10.377Z,10.60
2023-03-12T14:18:39.420Z,10.70
2023-03-12T14:21:13.681Z,10.70
2023-03-12T14:23:46.912Z,10.80
2023-03-12T14:26:28.267Z,10.80
2023-03-12T14:29:04.158Z,10.70
2023-03-12T14:31:32.515Z,10.70
2023-03-12T14:34:21.044Z,10.60
2023-03-12T14:37:14.691Z,10.50
2023-03-12T14:40:01.916Z,10.60
2023-03-12T14:42:34.129Z,10.50
2023-03-12T14:45:18.439Z,10.60
2023-03-12T14:47:54.690Z,10.80
2023-03-12T14:50:28.098Z,10.80
2023-03-12T14:52:57.233Z,10.60
2023-03-12T14:55:25.841Z,10.70
2023-03-12T14:58:17.372Z,10.50
2023-03-12T15:00:45.978Z,10.80
2023-03-12T15:03:16.397Z,11.00
2023-03-12T15:05:47.454Z,10.90
2023-03-12T15:08:15.131Z,10.60
2023-03-12T15:10:51.168Z,10.50
2023-03-12T15:13:20.430Z,10.50
2023-03-12T15:15:50.343Z,10.40
2023-03-12T15:18:21.072Z,10.40
2023-03-12T15:20:50.184Z,10.50
2023-03-12T15:23:18.788Z,10.50
2023-03-12T15:25:45.938Z,10.50
2023-03-12T15:28:15.394Z,10.40
2023-03-12T15:30:43.794Z,10.40
2023-03-12T15:33:17.926Z,10.30
2023-03-12T15:36:12.147Z,10.10
2023-03-12T15:38:45.990Z,10.00
2023-03-12T15:41:20.097Z,10.00
2023-03-12T15:43:53.719Z,10.00
2023-03-12T15:46:20.931Z,10.00
2023-03-12T15:48:57.578Z,9.90
2023-03-12T15:51:30.723Z,9.90
2023-03-12T15:54:24.438Z,9.80
2023-03-12T15:56:51.441Z,9.80
2023-03-12T15:59:25.791Z,9.90
2023-03-12T16:01:55.227Z,9.80
2023-03-12T16:04:23.979Z,9.90
2023-03-12T16:06:53.307Z,9.80
2023-03-12T16:09:24.552Z,9.90
2023-03-12T16:11:53.526Z,9.90
2023-03-12T16:14:22.261Z,9.70
2023-03-12T16:16:49.194Z,9.60
2023-03-12T16:19:19.136Z,9.50
2023-03-12T16:21:46.616Z,9.50
2023-03-12T16:24:14.256Z,9.50
2023-03-12T16:26:50.810Z,9.40
2023-03-12T16:29:19.612Z,9.40
2023-03-12T16:31:54.164Z,9.50
2023-03-12T16:34:21.575Z,9.40
2023-03-12T16:36:48.392Z,9.40
2023-03-12T16:39:16.276Z,9.40
2023-03-12T16:41:44.605Z,9.30
2023-03-12T16:44:17.404Z,9.20
2023-03-12T16:46:45.112Z,9.10
2023-03-12T16:49:18.089Z,9.00
2023-03-12T16:51:44.996Z,9.00
2023-03-12T16:54:12.679Z,8.90
2023-03-12T16:56:44.694Z,8.90
2023-03-12T16:59:19.661Z,8.80
2023-03-12T17:01:46.686Z,8.70
2023-03-12T17:04:13.727Z,8.70
2023-03-12T17:06:41.343Z,8.60
2023-03-12T17:09:08.545Z,8.50
2023-03-12T17:11:37.834Z,8.40
2023-03-12T17:14:18.120Z,8.30
2023-03-12T17:16:45.323Z,8.20
2023-03-12T17:19:12.330Z,8.00
2023-03-12T17:21:39.603Z,8.00
2023-03-12T17:24:06.785Z,8.00
2023-03-12T17:26:33.929Z,8.00
2023-03-12T17:29:00.705Z,7.90
2023-03-12T17:31:27.590Z,8.00
2023-03-12T17:33:54.457Z,8.00
2023-03-12T17:36:21.370Z,8.00
2023-03-12T17:38:50.700Z,7.90
2023-03-12T17:41:25.910Z,7.90
2023-03-12T17:43:54.724Z,7.90
2023-03-12T17:46:21.670Z,7.80
2023-03-12T17:48:48.500Z,7.80
2023-03-12T17:51:15.380Z,7.70
2023-03-12T17:53:42.313Z,7.70
2023-03-12T17:56:12.308Z,7.60
2023-03-12T17:58:39.499Z,7.60
2023-03-12T18:01:06.302Z,7.60
2023-03-12T18:03:33.192Z,7.50
2023-03-12T18:06:00.115Z,7.50
2023-03-12T18:08:26.911Z,7.50
2023-03-12T18:10:53.817Z,7.40
2023-03-12T18:13:23.397Z,7.30
2023-03-12T18:15:52.910Z,7.30
2023-03-12T18:18:20.386Z,7.20
2023-03-12T18:20:48.067Z,7.20
2023-03-12T18:23:15.306Z,7.20
2023-03-12T18:25:42.139Z,7.20
2023-03-12T18:28:09.486Z,7.30
2023-03-12T18:30:36.298Z,7.20
2023-03-12T18:33:03.379Z,7.20
2023-03-12T18:35:30.540Z,7.20
2023-03-12T18:37:58.302Z,7.20
2023-03-12T18:40:27.577Z,7.10
2023-03-12T18:42:57.981Z,7.10
2023-03-12T18:45:24.859Z,7.00
2023-03-12T18:47:51.790Z,7.00
2023-03-12T18:50:18.830Z,7.00
2023-03-12T18:52:45.667Z,7.10
2023-03-12T18:55:15.354Z,7.10
2023-03-12T18:57:43.275Z,7.00
2023-03-12T19:00:15.543Z,6.90
2023-03-12T19:02:42.916Z,6.80
2023-03-12T19:05:13.298Z,6.80
2023-03-12T19:07:40.581Z,6.70
2023-03-12T19:10:08.424Z,6.70
2023-03-12T19:12:45.332Z,6.60
2023-03-12T19:15:17.823Z,6.60
2023-03-12T19:17:44.998Z,6.50
2023-03-12T19:20:12.519Z,6.50
2023-03-12T19:22:39.348Z,6.50
2023-03-12T19:25:06.523Z,6.50
2023-03-12T19:27:33.530Z,6.60
2023-03-12T19:30:00.319Z,6.60
2023-03-12T19:32:33.288Z,6.60
2023-03-12T19:35:10.860Z,6.60
2023-03-12T19:37:37.999Z,6.50
2023-03-12T19:40:10.679Z,6.50
2023-03-12T19:42:37.611Z,6.50
2023-03-12T19:45:04.664Z,6.50
2023-03-12T19:47:33.217Z,6.50
2023-03-12T19:50:00.777Z,6.40
2023-03-12T19:52:27.853Z,6.40
2023-03-12T19:55:03.963Z,6.40
2023-03-12T19:57:31.920Z,6.30
2023-03-12T19:59:58.829Z,6.30
2023-03-12T20:02:26.431Z,6.30
2023-03-12T20:04:53.870Z,6.30
2023-03-12T20:07:20.632Z,6.30
2023-03-12T20:09:47.567Z,6.30
2023-03-12T20:12:14.623Z,6.30
2023-03-12T20:14:42.795Z,6.20
2023-03-12T20:17:11.132Z,6.20
2023-03-12T20:19:38.864Z,6.20
2023-03-12T20:22:06.811Z,6.20
2023-03-12T20:24:33.712Z,6.20
2023-03-12T20:27:01.063Z,6.10
2023-03-12T20:29:27.823Z,6.10
2023-03-12T20:31:54.791Z,6.10
2023-03-12T20:34:21.731Z,6.10
2023-03-12T20:36:48.710Z,6.10
2023-03-12T20:39:15.530Z,6.10
2023-03-12T20:41:42.362Z,6.20
2023-03-12T20:44:09.254Z,6.20
2023-03-12T20:46:36.225Z,6.10
2023-03-12T20:49:03.309Z,6.10
2023-03-12T20:51:30.140Z,6.00
2023-03-12T20:53:57.698Z,6.00
2023-03-12T20:56:24.465Z,6.00
2023-03-12T20:58:52.135Z,6.00
2023-03-12T21:01:18.977Z,6.00
2023-03-12T21:03:46.142Z,6.00
2023-03-12T21:06:13.357Z,6.10
2023-03-12T21:08:40.145Z,6.10
2023-03-12T21:11:07.776Z,6.20
2023-03-12T21:13:36.166Z,6.30
2023-03-12T21:16:05.831Z,6.30
2023-03-12T21:18:33.118Z,6.30
2023-03-12T21:21:07.534Z,6.30
2023-03-12T21:23:36.402Z,6.20
2023-03-12T21:26:08.875Z,6.30
2023-03-12T21:28:36.182Z,6.20
2023-03-12T21:31:12.354Z,6.20
2023-03-12T21:33:39.683Z,6.10
2023-03-12T21:36:08.292Z,6.00
2023-03-12T21:38:36.346Z,6.00
2023-03-12T21:41:11.706Z,6.00
2023-03-12T21:43:39.582Z,6.10
2023-03-12T21:46:08.694Z,6.10
2023-03-12T21:48:36.062Z,6.10
2023-03-12T21:51:07.915Z,6.10
2023-03-12T21:53:35.611Z,6.20
2023-03-12T21:56:03.827Z,6.10
2023-03-12T21:58:31.793Z,6.10
2023-03-12T22:01:08.069Z,6.20
2023-03-12T22:03:35.118Z,6.40
2023-03-12T22:06:02.285Z,6.40
2023-03-12T22:08:29.336Z,6.40
2023-03-12T22:10:56.101Z,6.40
2023-03-12T22:13:23.328Z,6.40
2023-03-12T22:15:55.730Z,6.50
2023-03-12T22:18:23.718Z,6.40
2023-03-12T22:20:55.626Z,6.40
2023-03-12T22:23:23.862Z,6.40
2023-03-12T22:25:51.126Z,6.50
2023-03-12T22:28:18.255Z,6.50
2023-03-12T22:30:45.562Z,6.50
2023-03-12T22:33:12.985Z,6.40
2023-03-12T22:35:44.904Z,6.40
2023-03-12T22:38:11.898Z,6.40
2023-03-12T22:40:39.732Z,6.40
2023-03-12T22:43:06.626Z,6.40
2023-03-12T22:45:34.144Z,6.50
2023-03-12T22:48:01.211Z,6.60
2023-03-12T22:50:28.203Z,6.70
2023-03-12T22:52:55.005Z,6.80
2023-03-12T22:55:21.879Z,6.80
2023-03-12T22:57:52.129Z,6.70
2023-03-12T23:00:23.923Z,6.60
2023-03-12T23:02:51.019Z,6.40
2023-03-12T23:05:17.904Z,6.30
2023-03-12T23:07:44.884Z,6.20
2023-03-12T23:10:11.880Z,6.20
2023-03-12T23:12:38.897Z,6.40
2023-03-12T23:15:06.431Z,6.50
2023-03-12T23:17:33.341Z,6.80
2023-03-12T23:20:00.184Z,6.90
2023-03-12T23:22:27.230Z,7.00
2023-03-12T23:24:54.081Z,7.00
2023-03-12T23:27:21.021Z,7.00
2023-03-12T23:29:47.772Z,7.00
2023-03-12T23:32:14.553Z,7.00
2023-03-12T23:34:41.319Z,7.10
2023-03-12T23:37:08.433Z,7.10
2023-03-12T23:39:45.013Z,7.10
2023-03-12T23:42:18.722Z,7.10
2023-03-12T23:44:46.383Z,7.10
2023-03-12T23:47:13.236Z,7.10
2023-03-12T23:49:40.063Z,7.10
2023-03-12T23:52:06.934Z,7.00
2023-03-12T23:54:33.784Z,7.00
2023-03-12T23:57:00.611Z,7.00
2023-03-12T23:59:27.645Z,7.00
